createdAt,value
2023-03-01T00:01:38.881Z,1.25
2023-03-01T00:04:05.382Z,1.39
2023-03-01T00:06:32.494Z,1.22
2023-03-01T00:08:59.266Z,1.30
2023-03-01T00:11:28.159Z,1.42
2023-03-01T00:13:58.090Z,1.41
2023-03-01T00:16:30.907Z,1.45
2023-03-01T00:18:58.741Z,1.30
2023-03-01T00:26:29.993Z,1.04
2023-03-01T00:28:58.596Z,0.93
2023-03-01T00:31:28.635Z,0.81
2023-03-01T00:33:58.232Z,0.94
2023-03-01T00:36:27.080Z,0.99
2023-03-01T00:38:53.934Z,0.91
2023-03-01T00:41:21.609Z,0.75
2023-03-01T00:43:48.621Z,0.73
2023-03-01T00:46:21.106Z,0.78
2023-03-01T00:51:28.665Z,0.71
2023-03-01T00:53:57.852Z,0.81
2023-03-01T00:56:24.890Z,0.67
2023-03-01T00:58:51.969Z,0.64
2023-03-01T01:01:22.104Z,0.42
2023-03-01T01:03:50.999Z,0.42
2023-03-01T01:06:32.429Z,0.23
2023-03-01T01:08:59.890Z,0.20
2023-03-01T01:11:28.864Z,0.42
2023-03-01T01:13:55.843Z,0.16
2023-03-01T01:16:24.428Z,0.12
2023-03-01T01:18:51.725Z,0.15
2023-03-01T01:23:55.355Z,0.40
2023-03-01T01:26:27.810Z,0.46
2023-03-01T01:28:55.314Z,0.42
2023-03-01T01:31:24.707Z,0.48
2023-03-01T01:33:52.632Z,0.56
2023-03-01T01:36:19.257Z,0.55
2023-03-01T01:38:45.960Z,0.55
2023-03-01T01:41:14.462Z,0.68
2023-03-01T01:43:47.252Z,0.77
2023-03-01T01:46:29.692Z,0.74
2023-03-01T01:49:18.732Z,0.76
2023-03-01T01:54:53.203Z,0.68
2023-03-01T01:57:24.949Z,0.79
2023-03-01T01:59:55.771Z,0.86
2023-03-01T02:05:11.577Z,0.63
2023-03-01T02:07:40.321Z,0.75
2023-03-01T02:10:07.531Z,0.80
2023-03-01T02:15:11.067Z,0.79
2023-03-01T02:17:38.650Z,0.88
2023-03-01T02:20:18.690Z,0.76
2023-03-01T02:22:46.298Z,0.85
2023-03-01T02:25:34.012Z,0.93
2023-03-01T02:28:16.734Z,0.95
2023-03-01T02:36:17.191Z,0.97
2023-03-01T02:38:44.926Z,0.97
2023-03-01T02:41:16.016Z,0.96
2023-03-01T02:43:43.217Z,0.96
2023-03-01T02:46:16.394Z,1.06
2023-03-01T02:48:49.805Z,0.93
2023-03-01T02:51:22.677Z,0.95
2023-03-01T02:54:18.875Z,0.95
2023-03-01T02:56:50.108Z,1.00
2023-03-01T02:59:20.745Z,1.01
2023-03-01T03:01:47.624Z,1.15
2023-03-01T03:04:22.231Z,1.17
2023-03-01T03:06:50.905Z,1.12
2023-03-01T03:09:18.725Z,1.09
2023-03-01T03:11:45.338Z,1.16
2023-03-01T03:14:14.254Z,1.04
2023-03-01T03:16:50.862Z,1.06
2023-03-01T03:19:19.842Z,1.16
2023-03-01T03:21:46.917Z,1.04
2023-03-01T03:24:13.597Z,1.09
2023-03-01T03:29:11.486Z,1.14
2023-03-01T03:31:38.050Z,1.32
2023-03-01T03:34:04.639Z,1.11
2023-03-01T03:36:31.374Z,1.21
2023-03-01T03:38:58.126Z,1.30
2023-03-01T03:41:24.895Z,1.24
2023-03-01T03:43:51.498Z,1.14
2023-03-01T03:46:18.187Z,1.21
2023-03-01T03:48:46.674Z,1.35
2023-03-01T03:51:15.663Z,1.35
2023-03-01T03:53:42.733Z,1.26
2023-03-01T03:56:09.653Z,1.30
2023-03-01T03:58:36.879Z,1.28
2023-03-01T04:01:03.733Z,1.28
2023-03-01T04:03:32.934Z,1.33
2023-03-01T04:06:01.491Z,1.19
2023-03-01T04:08:29.003Z,1.30
2023-03-01T04:11:23.661Z,1.43
2023-03-01T04:13:50.574Z,1.39
2023-03-01T04:16:18.808Z,1.28
2023-03-01T04:18:45.408Z,1.28
2023-03-01T04:21:12.596Z,1.20
2023-03-01T04:23:39.562Z,1.36
2023-03-01T04:26:06.371Z,1.24
2023-03-01T04:28:44.135Z,1.29
2023-03-01T04:31:17.524Z,1.28
2023-03-01T04:33:50.216Z,1.42
2023-03-01T04:36:17.792Z,1.23
2023-03-01T04:38:48.467Z,1.29
2023-03-01T04:41:19.758Z,1.51
2023-03-01T04:43:46.310Z,1.57
2023-03-01T04:46:16.105Z,1.62
2023-03-01T04:48:44.422Z,1.53
2023-03-01T04:51:14.626Z,1.40
2023-03-01T04:53:42.490Z,1.57
2023-03-01T04:56:09.581Z,1.47
2023-03-01T05:01:19.927Z,1.61
2023-03-01T05:03:52.423Z,1.62
2023-03-01T05:06:20.379Z,1.57
2023-03-01T05:11:18.251Z,1.51
2023-03-01T05:13:44.802Z,1.46
2023-03-01T05:16:12.774Z,1.46
2023-03-01T05:18:41.340Z,1.49
2023-03-01T05:21:12.883Z,1.43
2023-03-01T05:23:40.248Z,1.29
2023-03-01T05:26:16.197Z,1.27
2023-03-01T05:28:49.165Z,1.39
2023-03-01T05:31:15.795Z,1.47
2023-03-01T05:33:42.735Z,1.26
2023-03-01T05:36:10.804Z,1.35
2023-03-01T05:38:37.411Z,1.38
2023-03-01T05:41:04.308Z,1.28
2023-03-01T05:43:35.059Z,1.32
2023-03-01T05:46:02.190Z,1.36
2023-03-01T05:48:28.696Z,1.31
2023-03-01T05:50:55.196Z,1.31
2023-03-01T05:53:22.245Z,1.23
2023-03-01T05:55:48.955Z,1.36
2023-03-01T05:58:18.557Z,1.35
2023-03-01T06:00:47.406Z,1.20
2023-03-01T06:03:15.704Z,1.26
2023-03-01T06:05:42.959Z,1.28
2023-03-01T06:08:11.609Z,1.20
2023-03-01T06:10:38.433Z,1.13
2023-03-01T06:15:36.589Z,1.14
2023-03-01T06:18:03.198Z,1.20
2023-03-01T06:20:30.223Z,1.47
2023-03-01T06:22:57.358Z,1.21
2023-03-01T06:25:26.394Z,1.13
2023-03-01T06:27:55.678Z,1.09
2023-03-01T06:30:24.280Z,1.14
2023-03-01T06:32:51.216Z,1.25
2023-03-01T06:35:19.435Z,1.17
2023-03-01T06:37:48.437Z,1.28
2023-03-01T06:40:15.491Z,1.23
2023-03-01T06:42:44.940Z,1.21
2023-03-01T06:45:11.696Z,1.15
2023-03-01T06:47:38.228Z,1.07
2023-03-01T06:50:05.208Z,1.13
2023-03-01T06:52:32.079Z,1.10
2023-03-01T06:54:58.695Z,1.03
2023-03-01T06:57:25.459Z,0.95
2023-03-01T06:59:51.936Z,1.12
2023-03-01T07:02:19.018Z,1.20
2023-03-01T07:04:45.630Z,0.99
2023-03-01T07:07:12.356Z,1.09
2023-03-01T07:09:38.973Z,1.19
2023-03-01T07:12:05.845Z,1.02
2023-03-01T07:14:32.407Z,0.98
2023-03-01T07:16:59.010Z,1.09
2023-03-01T07:19:25.695Z,0.97
2023-03-01T07:21:52.310Z,1.08
2023-03-01T07:24:18.913Z,1.18
2023-03-01T07:26:45.450Z,1.13
2023-03-01T07:31:43.595Z,1.87
2023-03-01T07:36:44.266Z,2.16
2023-03-01T07:39:12.067Z,2.28
2023-03-01T07:41:38.857Z,2.17
2023-03-01T07:44:05.922Z,2.27
2023-03-01T07:46:33.347Z,2.49
2023-03-01T07:49:00.150Z,2.38
2023-03-01T07:51:26.712Z,2.56
2023-03-01T07:53:53.246Z,2.59
2023-03-01T07:56:20.632Z,2.76
2023-03-01T07:58:48.193Z,2.72
2023-03-01T08:01:19.349Z,2.88
2023-03-01T08:03:46.486Z,2.98
2023-03-01T08:06:15.307Z,3.14
2023-03-01T08:08:42.624Z,3.15
2023-03-01T08:11:12.455Z,3.22
2023-03-01T08:13:39.166Z,3.35
2023-03-01T08:16:08.905Z,3.21
2023-03-01T08:18:35.757Z,3.22
2023-03-01T08:21:07.688Z,3.22
2023-03-01T08:23:34.401Z,3.41
2023-03-01T08:26:16.100Z,3.45
2023-03-01T08:28:42.971Z,3.48
2023-03-01T08:31:17.315Z,3.63
2023-03-01T08:33:43.976Z,3.75
2023-03-01T08:36:10.657Z,3.75
2023-03-01T08:38:37.219Z,3.90
2023-03-01T08:41:04.512Z,4.09
2023-03-01T08:43:31.570Z,3.99
2023-03-01T08:45:58.474Z,4.08
2023-03-01T08:48:25.589Z,4.22
2023-03-01T08:50:52.543Z,4.45
2023-03-01T08:53:19.141Z,4.62
2023-03-01T08:55:45.687Z,4.81
2023-03-01T08:58:12.526Z,4.92
2023-03-01T09:00:39.388Z,4.79
2023-03-01T09:03:05.973Z,4.99
2023-03-01T09:05:34.018Z,5.17
2023-03-01T09:08:00.683Z,5.43
2023-03-01T09:10:27.285Z,5.73
2023-03-01T09:12:53.845Z,5.78
2023-03-01T09:15:20.429Z,5.75
2023-03-01T09:17:47.986Z,5.92
2023-03-01T09:20:14.924Z,5.79
2023-03-01T09:22:41.544Z,5.98
2023-03-01T09:25:08.566Z,6.20
2023-03-01T09:27:35.164Z,6.24
2023-03-01T09:30:01.909Z,6.58
2023-03-01T09:32:31.019Z,5.95
2023-03-01T09:37:39.137Z,6.46
2023-03-01T09:40:08.308Z,6.71
2023-03-01T09:42:37.048Z,6.45
2023-03-01T09:45:12.577Z,6.97
2023-03-01T09:47:39.097Z,6.75
2023-03-01T09:50:12.303Z,6.55
2023-03-01T09:52:47.204Z,6.64
2023-03-01T09:58:00.420Z,6.78
2023-03-01T10:00:37.127Z,6.72
2023-03-01T10:06:10.172Z,7.08
2023-03-01T10:08:58.799Z,7.56
2023-03-01T10:11:29.505Z,7.87
2023-03-01T10:13:59.628Z,7.97
2023-03-01T10:16:46.464Z,8.16
2023-03-01T10:19:22.986Z,8.40
2023-03-01T10:21:51.950Z,8.37
2023-03-01T10:24:21.823Z,8.38
2023-03-01T10:26:53.082Z,8.85
2023-03-01T10:29:25.208Z,8.69
2023-03-01T10:31:53.210Z,8.57
2023-03-01T10:34:30.123Z,8.34
2023-03-01T10:37:02.211Z,8.76
2023-03-01T10:39:28.826Z,9.07
2023-03-01T10:42:01.511Z,9.19
2023-03-01T10:44:48.764Z,9.46
2023-03-01T10:47:22.864Z,9.30
2023-03-01T10:49:59.921Z,8.83
2023-03-01T10:52:29.964Z,9.03
2023-03-01T10:55:21.771Z,9.24
2023-03-01T11:00:23.612Z,9.32
2023-03-01T11:03:12.183Z,8.87
2023-03-01T11:08:51.276Z,9.52
2023-03-01T11:11:20.941Z,9.45
2023-03-01T11:14:10.487Z,9.44
2023-03-01T11:16:45.430Z,9.18
2023-03-01T11:19:12.011Z,9.11
2023-03-01T11:21:45.106Z,9.35
2023-03-01T11:24:15.406Z,9.52
2023-03-01T11:26:48.394Z,9.68
2023-03-01T11:29:48.570Z,9.44
2023-03-01T11:32:16.533Z,9.65
2023-03-01T11:34:54.649Z,8.72
2023-03-01T11:37:47.922Z,9.69
2023-03-01T11:40:25.287Z,9.84
2023-03-01T11:43:03.314Z,10.11
2023-03-01T11:45:52.766Z,10.33
2023-03-01T11:48:50.053Z,10.00
2023-03-01T11:51:32.784Z,10.12
2023-03-01T11:54:14.345Z,9.66
2023-03-01T11:57:01.468Z,9.68
2023-03-01T12:00:06.070Z,10.00
2023-03-01T12:08:38.883Z,10.33
2023-03-01T12:11:05.487Z,10.22
2023-03-01T12:13:45.657Z,9.96
2023-03-01T12:16:38.349Z,10.65
2023-03-01T12:19:27.366Z,10.43
2023-03-01T12:22:08.414Z,10.43
2023-03-01T12:24:53.928Z,10.87
2023-03-01T12:27:41.420Z,10.79
2023-03-01T12:30:26.777Z,10.31
2023-03-01T12:33:34.924Z,10.70
2023-03-01T12:36:25.582Z,10.12
2023-03-01T12:39:17.307Z,10.51
2023-03-01T12:42:12.456Z,10.62
2023-03-01T12:48:03.156Z,10.90
2023-03-01T12:50:37.987Z,10.47
2023-03-01T12:53:04.504Z,10.09
2023-03-01T12:58:19.558Z,10.27
2023-03-01T13:01:20.546Z,10.65
2023-03-01T13:04:12.877Z,10.34
2023-03-01T13:07:09.246Z,10.50
2023-03-01T13:09:57.055Z,11.01
2023-03-01T13:12:53.690Z,11.21
2023-03-01T13:18:03.831Z,10.81
2023-03-01T13:20:47.319Z,10.62
2023-03-01T13:23:22.796Z,10.48
2023-03-01T13:26:01.156Z,10.57
2023-03-01T13:29:03.603Z,10.34
2023-03-01T13:31:30.223Z,10.64
2023-03-01T13:36:31.675Z,10.49
2023-03-01T13:39:01.211Z,10.13
2023-03-01T13:44:43.767Z,9.92
2023-03-01T13:47:11.143Z,9.82
2023-03-01T13:49:48.650Z,9.76
2023-03-01T13:52:29.055Z,9.67
2023-03-01T13:54:57.661Z,9.85
2023-03-01T13:57:30.032Z,9.85
2023-03-01T13:59:56.532Z,9.72
2023-03-01T14:02:23.812Z,10.03
2023-03-01T14:05:00.830Z,9.91
2023-03-01T14:07:32.048Z,9.56
2023-03-01T14:10:02.708Z,9.60
2023-03-01T14:12:58.373Z,9.58
2023-03-01T14:15:39.391Z,9.42
2023-03-01T14:18:33.777Z,9.44
2023-03-01T14:21:00.445Z,9.49
2023-03-01T14:23:28.116Z,9.20
2023-03-01T14:25:56.281Z,9.24
2023-03-01T14:28:27.467Z,9.05
2023-03-01T14:31:01.699Z,9.03
2023-03-01T14:33:43.295Z,9.11
2023-03-01T14:36:13.768Z,8.86
2023-03-01T14:38:40.341Z,9.14
2023-03-01T14:41:13.787Z,9.14
2023-03-01T14:43:44.479Z,9.15
2023-03-01T14:46:41.620Z,9.06
2023-03-01T14:49:18.113Z,9.03
2023-03-01T14:52:03.050Z,9.12
2023-03-01T14:54:49.272Z,8.99
2023-03-01T14:57:22.790Z,9.01
2023-03-01T14:59:51.906Z,8.89
2023-03-01T15:02:21.014Z,8.83
2023-03-01T15:04:50.186Z,8.91
2023-03-01T15:07:16.988Z,8.82
2023-03-01T15:09:44.069Z,8.65
2023-03-01T15:12:28.777Z,8.78
2023-03-01T15:15:04.388Z,8.92
2023-03-01T15:17:35.913Z,8.79
2023-03-01T15:22:38.045Z,8.83
2023-03-01T15:25:05.251Z,8.77
2023-03-01T15:27:31.857Z,8.74
2023-03-01T15:30:03.295Z,8.73
2023-03-01T15:32:40.361Z,8.80
2023-03-01T15:35:49.030Z,8.73
2023-03-01T15:38:29.355Z,8.40
2023-03-01T15:40:57.565Z,8.49
2023-03-01T15:43:47.809Z,8.16
2023-03-01T15:46:24.703Z,8.26
2023-03-01T15:48:55.734Z,8.31
2023-03-01T15:51:30.791Z,8.14
2023-03-01T15:54:00.646Z,8.18
2023-03-01T15:56:27.343Z,8.12
2023-03-01T15:58:53.890Z,8.17
2023-03-01T16:03:51.832Z,8.08
2023-03-01T16:06:18.668Z,7.97
2023-03-01T16:08:45.180Z,7.96
2023-03-01T16:11:18.077Z,7.93
2023-03-01T16:13:45.684Z,7.93
2023-03-01T16:16:16.035Z,7.85
2023-03-01T16:18:47.728Z,7.84
2023-03-01T16:26:38.811Z,7.70
2023-03-01T16:29:05.948Z,7.67
2023-03-01T16:31:33.728Z,7.57
2023-03-01T16:34:00.886Z,7.57
2023-03-01T16:39:04.540Z,7.41
2023-03-01T16:41:32.093Z,7.46
2023-03-01T16:43:58.864Z,7.38
2023-03-01T16:49:01.183Z,7.11
2023-03-01T16:51:27.868Z,7.11
2023-03-01T16:53:54.494Z,7.10
2023-03-01T16:56:21.187Z,7.01
2023-03-01T16:58:48.197Z,7.01
2023-03-01T17:01:20.548Z,6.99
2023-03-01T17:03:48.536Z,7.02
2023-03-01T17:08:51.977Z,6.82
2023-03-01T17:13:51.673Z,6.61
2023-03-01T17:16:20.576Z,6.40
2023-03-01T17:18:47.722Z,6.38
2023-03-01T17:21:15.185Z,6.23
2023-03-01T17:23:44.099Z,6.03
2023-03-01T17:26:11.078Z,5.82
2023-03-01T17:28:38.554Z,5.55
2023-03-01T17:31:07.007Z,5.48
2023-03-01T17:33:33.632Z,5.34
2023-03-01T17:36:00.457Z,5.22
2023-03-01T17:38:27.219Z,5.06
2023-03-01T17:40:53.792Z,5.07
2023-03-01T17:45:58.709Z,4.96
2023-03-01T17:48:26.031Z,5.03
2023-03-01T17:50:52.791Z,4.95
2023-03-01T17:53:19.381Z,4.76
2023-03-01T17:55:46.216Z,4.78
2023-03-01T17:58:14.534Z,4.77
2023-03-01T18:00:41.721Z,4.91
2023-03-01T18:03:08.294Z,4.77
2023-03-01T18:05:36.678Z,4.55
2023-03-01T18:08:03.288Z,4.56
2023-03-01T18:13:03.258Z,4.38
2023-03-01T18:15:29.776Z,4.19
2023-03-01T18:17:56.278Z,4.01
2023-03-01T18:20:22.878Z,4.23
2023-03-01T18:22:51.017Z,4.23
2023-03-01T18:25:17.579Z,4.18
2023-03-01T18:27:44.172Z,4.24
2023-03-01T18:30:11.524Z,4.19
2023-03-01T18:32:39.789Z,4.14
2023-03-01T18:35:07.806Z,4.09
2023-03-01T18:37:34.460Z,4.20
2023-03-01T18:40:00.997Z,4.23
2023-03-01T18:42:27.689Z,4.32
2023-03-01T18:44:54.243Z,4.39
2023-03-01T18:47:20.849Z,4.51
2023-03-01T18:49:47.411Z,4.45
2023-03-01T18:52:14.094Z,4.45
2023-03-01T18:54:40.677Z,4.31
2023-03-01T18:57:07.338Z,4.19
2023-03-01T18:59:33.993Z,4.17
2023-03-01T19:02:00.591Z,4.41
2023-03-01T19:04:27.598Z,4.47
2023-03-01T19:06:54.329Z,4.71
2023-03-01T19:09:21.172Z,4.43
2023-03-01T19:11:47.835Z,4.38
2023-03-01T19:14:14.375Z,4.41
2023-03-01T19:16:40.975Z,4.52
2023-03-01T19:19:10.172Z,4.49
2023-03-01T19:24:08.833Z,4.32
2023-03-01T19:26:36.038Z,4.44
2023-03-01T19:29:03.982Z,4.25
2023-03-01T19:31:31.176Z,4.31
2023-03-01T19:34:10.002Z,4.21
2023-03-01T19:36:38.970Z,4.32
2023-03-01T19:39:06.904Z,4.52
2023-03-01T19:41:33.840Z,4.42
2023-03-01T19:44:04.602Z,4.43
2023-03-01T19:46:31.735Z,4.38
2023-03-01T19:49:00.576Z,4.34
2023-03-01T19:51:27.840Z,4.17
2023-03-01T19:53:54.986Z,4.33
2023-03-01T19:59:00.571Z,4.45
2023-03-01T20:04:10.676Z,4.55
2023-03-01T20:06:38.122Z,4.67
2023-03-01T20:09:20.416Z,4.70
2023-03-01T20:11:47.542Z,4.84
2023-03-01T20:14:14.221Z,4.90
2023-03-01T20:16:41.454Z,4.97
2023-03-01T20:19:08.257Z,5.09
2023-03-01T20:21:35.067Z,5.14
2023-03-01T20:24:02.168Z,5.16
2023-03-01T20:26:29.515Z,5.24
2023-03-01T20:28:57.341Z,5.27
2023-03-01T20:31:29.925Z,5.11
2023-03-01T20:33:58.189Z,5.09
2023-03-01T20:36:25.281Z,5.04
2023-03-01T20:38:53.608Z,5.07
2023-03-01T20:41:20.802Z,5.02
2023-03-01T20:43:54.956Z,4.94
2023-03-01T20:46:23.871Z,5.03
2023-03-01T20:48:53.973Z,4.82
2023-03-01T20:51:20.821Z,4.71
2023-03-01T20:53:47.609Z,4.63
2023-03-01T20:56:16.392Z,4.62
2023-03-01T20:58:43.361Z,4.41
2023-03-01T21:01:15.519Z,4.33
2023-03-01T21:03:42.300Z,4.24
2023-03-01T21:06:09.343Z,4.12
2023-03-01T21:08:36.223Z,4.05
2023-03-01T21:11:05.699Z,3.92
2023-03-01T21:13:34.430Z,3.85
2023-03-01T21:16:13.394Z,3.93
2023-03-01T21:18:41.027Z,3.80
2023-03-01T21:21:09.451Z,3.84
2023-03-01T21:23:37.860Z,3.71
2023-03-01T21:26:06.068Z,3.64
2023-03-01T21:28:33.604Z,3.75
2023-03-01T21:31:08.769Z,3.67
2023-03-01T21:36:10.031Z,3.55
2023-03-01T21:38:39.845Z,3.29
2023-03-01T21:41:10.665Z,3.19
2023-03-01T21:46:21.420Z,3.34
2023-03-01T21:54:02.748Z,3.45
2023-03-01T21:56:32.001Z,3.47
2023-03-01T21:58:58.977Z,3.48
2023-03-01T22:01:27.634Z,3.66
2023-03-01T22:06:42.545Z,3.63
2023-03-01T22:09:20.837Z,3.50
2023-03-01T22:11:50.886Z,3.60
2023-03-01T22:14:18.877Z,3.49
2023-03-01T22:16:47.795Z,3.31
2023-03-01T22:19:16.314Z,3.44
2023-03-01T22:21:44.868Z,3.57
2023-03-01T22:24:12.413Z,3.57
2023-03-01T22:26:41.200Z,3.73
2023-03-01T22:29:12.066Z,3.76
2023-03-01T22:31:39.512Z,3.66
2023-03-01T22:34:06.696Z,3.67
2023-03-01T22:36:34.103Z,3.57
2023-03-01T22:39:01.988Z,3.56
2023-03-01T22:41:37.424Z,3.62
2023-03-01T22:44:04.210Z,3.66
2023-03-01T22:46:31.176Z,3.63
2023-03-01T22:48:57.975Z,3.45
2023-03-01T22:51:27.866Z,3.48
2023-03-01T22:53:54.672Z,3.60
2023-03-01T22:56:24.332Z,3.58
2023-03-01T22:58:55.988Z,3.54
2023-03-01T23:01:24.573Z,3.60
2023-03-01T23:03:51.748Z,3.32
2023-03-01T23:08:53.170Z,3.28
2023-03-01T23:11:20.937Z,3.27
2023-03-01T23:13:47.835Z,3.32
2023-03-01T23:16:15.296Z,3.26
2023-03-01T23:18:42.550Z,3.26
2023-03-01T23:21:14.497Z,3.04
2023-03-01T23:23:41.511Z,3.07
2023-03-01T23:26:08.949Z,3.07
2023-03-01T23:28:40.600Z,2.96
2023-03-01T23:31:11.216Z,3.05
2023-03-01T23:33:37.957Z,2.83
2023-03-01T23:36:06.768Z,2.95
2023-03-01T23:38:33.470Z,3.17
2023-03-01T23:41:00.127Z,3.17
2023-03-01T23:43:26.740Z,2.97
2023-03-01T23:45:54.451Z,2.99
2023-03-01T23:48:21.265Z,3.09
2023-03-01T23:50:48.939Z,3.12
2023-03-01T23:53:18.144Z,2.97
2023-03-01T23:55:54.032Z,2.97
2023-03-01T23:58:26.089Z,3.02
